createdAt,value
2019-06-20T00:01:23.673Z,25.57
2019-06-20T00:03:49.816Z,24.77
2019-06-20T00:06:15.973Z,24.50
2019-06-20T00:08:42.142Z,24.67
2019-06-20T00:11:08.296Z,24.12
2019-06-20T00:13:34.464Z,25.10
2019-06-20T00:16:01.911Z,23.30
2019-06-20T00:18:28.065Z,23.95
2019-06-20T00:20:54.212Z,24.65
2019-06-20T00:23:20.357Z,24.57
2019-06-20T00:25:46.579Z,24.52
2019-06-20T00:28:12.731Z,23.87
2019-06-20T00:30:39.299Z,23.98
2019-06-20T00:33:05.441Z,25.08
2019-06-20T00:35:31.608Z,25.05
2019-06-20T00:37:57.762Z,24.15
2019-06-20T00:40:24.061Z,23.73
2019-06-20T00:42:50.203Z,24.85
2019-06-20T00:45:16.857Z,24.70
2019-06-20T00:47:43.015Z,25.30
2019-06-20T00:50:09.365Z,25.05
2019-06-20T00:52:35.533Z,24.50
2019-06-20T00:55:04.287Z,24.25
2019-06-20T00:57:30.440Z,24.27
2019-06-20T00:59:56.595Z,22.82
2019-06-20T01:02:22.761Z,22.90
2019-06-20T01:04:48.923Z,22.40
2019-06-20T01:07:15.189Z,23.22
2019-06-20T01:09:41.416Z,22.87
2019-06-20T01:12:07.583Z,23.27
2019-06-20T01:14:34.928Z,22.62
2019-06-20T01:17:01.196Z,22.62
2019-06-20T01:19:27.379Z,23.12
2019-06-20T01:21:53.601Z,22.93
2019-06-20T01:24:19.749Z,22.87
2019-06-20T01:26:45.904Z,22.35
2019-06-20T01:29:12.076Z,23.15
2019-06-20T01:31:38.337Z,22.90
2019-06-20T01:34:04.499Z,23.15
2019-06-20T01:36:30.666Z,23.00
2019-06-20T01:38:56.813Z,22.07
2019-06-20T01:41:22.986Z,21.48
2019-06-20T01:43:50.935Z,21.37
2019-06-20T01:46:17.188Z,23.02
2019-06-20T01:48:43.341Z,23.25
2019-06-20T01:51:09.511Z,23.90
2019-06-20T01:53:35.659Z,24.40
2019-06-20T01:56:01.832Z,24.18
2019-06-20T01:58:27.986Z,25.05
2019-06-20T02:00:54.277Z,24.57
2019-06-20T02:03:20.814Z,23.65
2019-06-20T02:05:46.967Z,23.12
2019-06-20T02:08:13.622Z,24.40
2019-06-20T02:10:39.767Z,22.80
2019-06-20T02:13:06.019Z,23.92
2019-06-20T02:15:32.160Z,24.67
2019-06-20T02:17:58.321Z,24.05
2019-06-20T02:20:33.893Z,23.65
2019-06-20T02:23:00.068Z,25.02
2019-06-20T02:25:26.303Z,23.83
2019-06-20T02:27:52.492Z,25.75
2019-06-20T02:30:18.721Z,24.80
2019-06-20T02:32:44.877Z,25.27
2019-06-20T02:35:11.117Z,24.20
2019-06-20T02:37:37.284Z,22.07
2019-06-20T02:40:06.491Z,23.52
2019-06-20T02:42:32.737Z,25.62
2019-06-20T02:44:58.877Z,26.00
2019-06-20T02:47:25.038Z,26.15
2019-06-20T02:49:51.185Z,25.35
2019-06-20T02:52:17.345Z,24.67
2019-06-20T02:54:43.484Z,25.30
2019-06-20T02:57:09.643Z,24.57
2019-06-20T02:59:35.784Z,26.07
2019-06-20T03:02:02.045Z,26.90
2019-06-20T03:04:29.193Z,26.48
2019-06-20T03:06:55.373Z,25.97
2019-06-20T03:09:21.520Z,24.65
2019-06-20T03:11:47.804Z,24.55
2019-06-20T03:14:14.043Z,26.52
2019-06-20T03:16:40.288Z,26.42
2019-06-20T03:19:06.462Z,25.55
2019-06-20T03:21:32.684Z,25.05
2019-06-20T03:23:58.849Z,25.23
2019-06-20T03:26:24.996Z,25.88
2019-06-20T03:28:51.160Z,27.62
2019-06-20T03:31:17.322Z,26.90
2019-06-20T03:33:43.479Z,25.52
2019-06-20T03:36:09.729Z,26.30
2019-06-20T03:38:35.885Z,25.88
2019-06-20T03:41:02.029Z,26.73
2019-06-20T03:43:28.209Z,26.65
2019-06-20T03:45:54.360Z,25.08
2019-06-20T03:48:20.521Z,24.60
2019-06-20T03:50:46.756Z,23.55
2019-06-20T03:53:13.930Z,23.55
2019-06-20T03:55:40.077Z,21.97
2019-06-20T03:58:06.341Z,22.73
2019-06-20T04:00:33.997Z,22.52
2019-06-20T04:03:00.458Z,22.05
2019-06-20T04:05:26.605Z,23.02
2019-06-20T04:07:52.764Z,22.48
2019-06-20T04:10:18.912Z,22.65
2019-06-20T04:12:45.079Z,23.47
2019-06-20T04:15:18.965Z,22.62
2019-06-20T04:17:39.369Z,22.95
2019-06-20T04:20:05.728Z,22.37
2019-06-20T04:22:31.913Z,23.40
2019-06-20T04:24:58.055Z,23.07
2019-06-20T04:27:24.196Z,21.42
2019-06-20T04:29:50.412Z,21.07
2019-06-20T04:32:16.567Z,21.15
2019-06-20T04:34:42.720Z,20.30
2019-06-20T04:37:08.852Z,19.67
2019-06-20T04:39:35.016Z,20.20
2019-06-20T04:42:01.162Z,20.05
2019-06-20T04:44:27.304Z,20.72
2019-06-20T04:47:00.893Z,19.65
2019-06-20T04:49:27.061Z,20.57
2019-06-20T04:51:53.221Z,20.50
2019-06-20T04:54:19.381Z,18.70
2019-06-20T04:56:45.570Z,20.02
2019-06-20T04:59:11.781Z,19.55
2019-06-20T05:01:37.934Z,20.00
2019-06-20T05:04:04.084Z,20.75
2019-06-20T05:06:30.235Z,19.30
2019-06-20T05:08:56.391Z,19.00
2019-06-20T05:11:22.537Z,20.48
2019-06-20T05:13:48.706Z,19.60
2019-06-20T05:16:14.847Z,20.48
2019-06-20T05:18:41.097Z,20.45
2019-06-20T05:21:07.266Z,19.55
2019-06-20T05:23:33.430Z,19.92
2019-06-20T05:25:59.568Z,21.48
2019-06-20T05:28:25.948Z,20.50
2019-06-20T05:30:52.106Z,20.32
2019-06-20T05:33:18.285Z,21.70
2019-06-20T05:35:44.431Z,20.27
2019-06-20T05:38:10.588Z,20.40
2019-06-20T05:40:37.295Z,21.37
2019-06-20T05:43:03.703Z,19.92
2019-06-20T05:45:29.876Z,20.72
2019-06-20T05:47:56.027Z,21.70
2019-06-20T05:50:22.180Z,21.02
2019-06-20T05:52:48.330Z,22.42
2019-06-20T05:55:15.410Z,21.80
2019-06-20T05:57:41.626Z,21.25
2019-06-20T06:00:11.453Z,22.20
2019-06-20T06:02:37.900Z,22.17
2019-06-20T06:05:04.660Z,22.82
2019-06-20T06:07:30.832Z,23.45
2019-06-20T06:09:57.100Z,24.47
2019-06-20T06:12:23.316Z,25.85
2019-06-20T06:14:49.473Z,23.60
2019-06-20T06:17:15.630Z,25.40
2019-06-20T06:19:41.784Z,25.85
2019-06-20T06:22:07.925Z,24.18
2019-06-20T06:24:34.080Z,25.68
2019-06-20T06:27:00.401Z,23.10
2019-06-20T06:29:26.634Z,25.32
2019-06-20T06:31:52.805Z,24.70
2019-06-20T06:34:21.963Z,23.10
2019-06-20T06:36:47.004Z,23.50
2019-06-20T06:39:13.175Z,24.00
2019-06-20T06:41:39.319Z,23.30
2019-06-20T06:44:08.352Z,23.00
2019-06-20T06:46:43.686Z,21.68
2019-06-20T06:49:01.705Z,23.35
2019-06-20T06:51:28.949Z,23.12
2019-06-20T06:53:55.113Z,23.05
2019-06-20T06:56:21.261Z,23.02
2019-06-20T06:58:48.414Z,24.00
2019-06-20T07:01:14.570Z,24.18
2019-06-20T07:03:40.717Z,23.52
2019-06-20T07:06:06.896Z,23.87
2019-06-20T07:08:33.045Z,25.27
2019-06-20T07:10:59.225Z,23.38
2019-06-20T07:13:25.362Z,23.25
2019-06-20T07:15:51.531Z,24.85
2019-06-20T07:18:18.760Z,25.17
2019-06-20T07:20:44.912Z,25.82
2019-06-20T07:23:11.059Z,25.95
2019-06-20T07:25:37.217Z,26.10
2019-06-20T07:28:03.366Z,26.48
2019-06-20T07:30:29.634Z,24.87
2019-06-20T07:32:55.879Z,26.62
2019-06-20T07:35:22.053Z,27.73
2019-06-20T07:37:48.210Z,28.55
2019-06-20T07:40:16.356Z,28.12
2019-06-20T07:42:42.514Z,28.27
2019-06-20T07:45:09.563Z,30.17
2019-06-20T07:47:36.005Z,30.17
2019-06-20T07:50:04.871Z,28.62
2019-06-20T07:52:31.012Z,28.40
2019-06-20T07:54:57.188Z,33.30
2019-06-20T07:57:23.336Z,33.73
2019-06-20T07:59:49.488Z,39.40
2019-06-20T08:02:15.755Z,38.00
2019-06-20T08:04:41.909Z,38.33
2019-06-20T08:07:08.064Z,37.93
2019-06-20T08:09:44.790Z,35.83
2019-06-20T08:12:02.480Z,38.15
2019-06-20T08:14:28.617Z,37.70
2019-06-20T08:16:54.772Z,34.35
2019-06-20T08:19:20.938Z,33.23
2019-06-20T08:21:47.107Z,33.25
2019-06-20T08:24:13.353Z,35.40
2019-06-20T08:26:39.629Z,32.65
2019-06-20T08:29:19.737Z,32.78
2019-06-20T08:31:34.065Z,32.98
2019-06-20T08:34:00.500Z,30.57
2019-06-20T08:36:26.676Z,30.85
2019-06-20T08:38:52.809Z,30.32
2019-06-20T08:41:19.198Z,29.63
2019-06-20T08:43:45.523Z,28.95
2019-06-20T08:46:11.730Z,28.32
2019-06-20T08:48:37.873Z,25.35
2019-06-20T08:51:04.514Z,27.37
2019-06-20T08:53:30.777Z,26.60
2019-06-20T08:55:58.138Z,25.77
2019-06-20T08:58:24.976Z,26.15
2019-06-20T09:00:51.147Z,25.50
2019-06-20T09:03:17.380Z,32.05
2019-06-20T09:05:43.534Z,30.48
2019-06-20T09:08:11.487Z,30.57
2019-06-20T09:10:39.335Z,30.68
2019-06-20T09:13:06.433Z,25.70
2019-06-20T09:15:33.045Z,27.58
2019-06-20T09:17:59.205Z,27.45
2019-06-20T09:20:25.544Z,29.67
2019-06-20T09:22:52.317Z,28.30
2019-06-20T09:25:19.757Z,33.50
2019-06-20T09:27:45.914Z,33.53
2019-06-20T09:30:12.735Z,30.30
2019-06-20T09:32:39.289Z,29.48
2019-06-20T09:35:07.933Z,27.40
2019-06-20T09:37:34.098Z,27.35
2019-06-20T09:40:00.246Z,26.77
2019-06-20T09:42:26.404Z,26.55
2019-06-20T09:44:52.668Z,25.30
2019-06-20T09:47:18.931Z,24.35
2019-06-20T09:49:49.041Z,24.47
2019-06-20T09:52:13.220Z,24.55
2019-06-20T09:54:39.370Z,22.25
2019-06-20T09:57:05.581Z,23.35
2019-06-20T09:59:31.729Z,22.17
2019-06-20T10:01:58.828Z,20.68
2019-06-20T10:04:25.167Z,21.30
2019-06-20T10:06:52.296Z,19.48
2019-06-20T10:09:18.599Z,19.07
2019-06-20T10:11:45.286Z,19.55
2019-06-20T10:14:12.908Z,21.82
2019-06-20T10:16:45.767Z,23.55
2019-06-20T10:19:07.147Z,23.55
2019-06-20T10:21:33.297Z,22.87
2019-06-20T10:23:59.448Z,23.12
2019-06-20T10:26:25.605Z,24.25
2019-06-20T10:28:53.048Z,22.80
2019-06-20T10:31:19.325Z,23.85
2019-06-20T10:33:46.842Z,25.23
2019-06-20T10:36:13.128Z,25.30
2019-06-20T10:38:39.286Z,23.62
2019-06-20T10:41:05.525Z,23.75
2019-06-20T10:43:31.676Z,25.10
2019-06-20T10:45:57.841Z,25.27
2019-06-20T10:48:24.002Z,24.40
2019-06-20T10:50:50.140Z,25.15
2019-06-20T10:53:16.400Z,22.07
2019-06-20T10:55:43.328Z,24.40
2019-06-20T10:58:10.036Z,22.87
2019-06-20T11:00:36.258Z,22.07
2019-06-20T11:03:02.749Z,23.35
2019-06-20T11:05:28.967Z,23.42
2019-06-20T11:07:55.123Z,23.73
2019-06-20T11:10:21.679Z,23.55
2019-06-20T11:12:53.826Z,24.80
2019-06-20T11:15:16.678Z,23.20
2019-06-20T11:17:44.061Z,23.62
2019-06-20T11:20:10.896Z,25.10
2019-06-20T11:22:38.430Z,23.15
2019-06-20T11:25:05.488Z,22.62
2019-06-20T11:27:31.671Z,21.25
2019-06-20T11:29:57.899Z,21.80
2019-06-20T11:32:24.090Z,23.55
2019-06-20T11:34:50.224Z,24.25
2019-06-20T11:37:16.376Z,22.73
2019-06-20T11:39:43.230Z,22.87
2019-06-20T11:42:09.491Z,21.60
2019-06-20T11:44:37.008Z,22.75
2019-06-20T11:47:03.323Z,22.70
2019-06-20T11:49:29.541Z,22.50
2019-06-20T11:51:55.692Z,21.65
2019-06-20T11:54:21.866Z,21.95
2019-06-20T11:56:48.012Z,20.90
2019-06-20T11:59:14.187Z,21.97
2019-06-20T12:01:41.320Z,20.30
2019-06-20T12:04:09.510Z,19.82
2019-06-20T12:06:36.739Z,20.32
2019-06-20T12:09:05.431Z,21.23
2019-06-20T12:11:31.857Z,20.82
2019-06-20T12:13:58.025Z,21.23
2019-06-20T12:16:24.164Z,21.20
2019-06-20T12:18:50.332Z,22.90
2019-06-20T12:21:16.476Z,22.65
2019-06-20T12:23:42.629Z,21.00
2019-06-20T12:26:08.772Z,21.27
2019-06-20T12:28:34.921Z,23.20
2019-06-20T12:31:01.080Z,21.93
2019-06-20T12:33:27.232Z,20.77
2019-06-20T12:35:53.380Z,20.37
2019-06-20T12:38:19.540Z,22.40
2019-06-20T12:40:46.206Z,23.47
2019-06-20T12:43:12.569Z,22.27
2019-06-20T12:45:40.030Z,18.95
2019-06-20T12:48:07.829Z,19.25
2019-06-20T12:50:34.003Z,19.80
2019-06-20T12:53:00.150Z,19.92
2019-06-20T12:55:27.347Z,21.17
2019-06-20T12:57:53.571Z,22.20
2019-06-20T13:00:20.690Z,21.55
2019-06-20T13:02:47.473Z,20.25
2019-06-20T13:05:16.002Z,19.55
2019-06-20T13:07:42.430Z,20.95
2019-06-20T13:10:09.621Z,18.57
2019-06-20T13:12:35.784Z,19.85
2019-06-20T13:15:02.344Z,16.97
2019-06-20T13:17:28.510Z,18.57
2019-06-20T13:19:54.669Z,17.90
2019-06-20T13:22:20.804Z,18.10
2019-06-20T13:24:47.217Z,18.48
2019-06-20T13:27:13.417Z,17.98
2019-06-20T13:29:40.712Z,19.30
2019-06-20T13:32:07.022Z,18.42
2019-06-20T13:34:33.172Z,19.32
2019-06-20T13:36:59.321Z,19.00
2019-06-20T13:39:25.573Z,19.45
2019-06-20T13:41:51.737Z,19.32
2019-06-20T13:44:17.896Z,19.77
2019-06-20T13:46:44.564Z,19.32
2019-06-20T13:49:10.792Z,18.48
2019-06-20T13:51:36.943Z,19.27
2019-06-20T13:54:03.510Z,17.40
2019-06-20T13:56:29.755Z,19.10
2019-06-20T13:58:56.004Z,18.92
2019-06-20T14:01:22.161Z,17.57
2019-06-20T14:03:48.709Z,18.55
2019-06-20T14:06:15.125Z,17.87
2019-06-20T14:08:42.538Z,18.20
2019-06-20T14:11:09.432Z,17.35
2019-06-20T14:13:35.581Z,18.40
2019-06-20T14:16:01.734Z,18.10
2019-06-20T14:18:27.868Z,18.73
2019-06-20T14:20:55.220Z,19.82
2019-06-20T14:23:21.461Z,19.67
2019-06-20T14:25:48.680Z,19.15
2019-06-20T14:28:14.960Z,19.57
2019-06-20T14:30:41.129Z,20.48
2019-06-20T14:33:07.329Z,19.23
2019-06-20T14:35:33.577Z,20.15
2019-06-20T14:37:59.818Z,19.25
2019-06-20T14:40:25.983Z,20.70
2019-06-20T14:42:52.462Z,18.87
2019-06-20T14:45:19.706Z,17.90
2019-06-20T14:47:46.108Z,17.55
2019-06-20T14:50:13.860Z,19.07
2019-06-20T14:52:40.087Z,19.57
2019-06-20T14:55:07.740Z,18.48
2019-06-20T14:57:33.996Z,18.15
2019-06-20T15:00:00.193Z,19.30
2019-06-20T15:02:37.843Z,18.45
2019-06-20T15:04:54.481Z,18.73
2019-06-20T15:07:20.648Z,19.05
2019-06-20T15:09:48.093Z,18.62
2019-06-20T15:12:14.857Z,19.32
2019-06-20T15:14:41.000Z,19.30
2019-06-20T15:17:07.161Z,19.15
2019-06-20T15:19:33.330Z,18.10
2019-06-20T15:21:59.500Z,19.30
2019-06-20T15:24:25.652Z,18.57
2019-06-20T15:26:52.427Z,18.80
2019-06-20T15:29:19.049Z,19.10
2019-06-20T15:31:45.916Z,18.15
2019-06-20T15:34:13.256Z,18.27
2019-06-20T15:36:39.441Z,17.37
2019-06-20T15:39:06.488Z,19.25
2019-06-20T15:41:32.831Z,19.60
2019-06-20T15:43:58.976Z,19.35
2019-06-20T15:46:25.159Z,18.62
2019-06-20T15:48:51.429Z,19.70
2019-06-20T15:51:18.686Z,20.08
2019-06-20T15:53:44.925Z,19.82
2019-06-20T15:56:11.109Z,20.62
2019-06-20T15:58:37.346Z,19.40
2019-06-20T16:01:03.485Z,20.68
2019-06-20T16:03:29.646Z,21.75
2019-06-20T16:05:55.812Z,22.32
2019-06-20T16:08:21.988Z,22.32
2019-06-20T16:10:48.141Z,22.93
2019-06-20T16:13:14.312Z,22.32
2019-06-20T16:15:40.464Z,20.27
2019-06-20T16:18:06.621Z,21.27
2019-06-20T16:20:32.770Z,22.27
2019-06-20T16:22:58.939Z,21.23
2019-06-20T16:25:25.107Z,21.33
2019-06-20T16:27:51.365Z,22.05
2019-06-20T16:30:18.164Z,23.10
2019-06-20T16:32:44.391Z,25.25
2019-06-20T16:35:12.974Z,26.73
2019-06-20T16:37:39.228Z,27.82
2019-06-20T16:40:08.369Z,28.30
2019-06-20T16:42:34.524Z,30.35
2019-06-20T16:45:00.666Z,27.90
2019-06-20T16:47:26.821Z,29.10
2019-06-20T16:49:52.970Z,30.68
2019-06-20T16:52:19.147Z,30.60
2019-06-20T16:54:45.393Z,30.15
2019-06-20T16:57:11.665Z,29.85
2019-06-20T16:59:37.817Z,30.65
2019-06-20T17:02:03.973Z,31.97
2019-06-20T17:04:30.151Z,29.27
2019-06-20T17:06:56.447Z,31.27
2019-06-20T17:09:22.693Z,31.62
2019-06-20T17:11:48.840Z,30.82
2019-06-20T17:14:14.977Z,33.75
2019-06-20T17:16:41.133Z,33.73
2019-06-20T17:19:07.277Z,34.03
2019-06-20T17:21:33.445Z,37.93
2019-06-20T17:23:59.600Z,37.98
2019-06-20T17:26:25.769Z,40.38
2019-06-20T17:28:51.927Z,42.30
2019-06-20T17:31:18.173Z,40.08
2019-06-20T17:33:56.781Z,42.50
2019-06-20T17:36:18.315Z,44.25
2019-06-20T17:38:40.450Z,39.35
2019-06-20T17:41:06.588Z,41.35
2019-06-20T17:43:32.761Z,45.63
2019-06-20T17:45:58.908Z,41.55
2019-06-20T17:48:25.064Z,42.73
2019-06-20T17:50:51.216Z,45.10
2019-06-20T17:53:17.380Z,42.78
2019-06-20T17:55:43.533Z,42.17
2019-06-20T17:58:09.699Z,43.73
2019-06-20T18:00:36.049Z,42.43
2019-06-20T18:03:02.221Z,47.27
2019-06-20T18:05:28.368Z,44.10
2019-06-20T18:07:54.670Z,42.13
2019-06-20T18:10:21.217Z,40.60
2019-06-20T18:12:47.376Z,39.83
2019-06-20T18:15:13.933Z,42.62
2019-06-20T18:17:40.100Z,41.70
2019-06-20T18:20:06.941Z,38.70
2019-06-20T18:22:34.185Z,39.35
2019-06-20T18:25:00.359Z,40.15
2019-06-20T18:27:26.580Z,40.63
2019-06-20T18:29:52.737Z,38.65
2019-06-20T18:32:18.886Z,41.50
2019-06-20T18:35:00.531Z,38.88
2019-06-20T18:37:13.233Z,42.95
2019-06-20T18:39:40.433Z,40.92
2019-06-20T18:42:06.556Z,42.90
2019-06-20T18:44:32.755Z,38.30
2019-06-20T18:46:58.973Z,37.98
2019-06-20T18:49:25.225Z,40.33
2019-06-20T18:51:51.379Z,39.78
2019-06-20T18:54:17.556Z,37.73
2019-06-20T18:56:43.718Z,40.10
2019-06-20T18:59:09.881Z,38.75
2019-06-20T19:01:36.124Z,40.03
2019-06-20T19:04:02.395Z,37.58
2019-06-20T19:06:35.861Z,38.20
2019-06-20T19:08:56.745Z,39.38
2019-06-20T19:11:22.995Z,40.48
2019-06-20T19:13:49.150Z,42.13
2019-06-20T19:16:15.308Z,39.10
2019-06-20T19:18:41.458Z,37.98
2019-06-20T19:21:07.606Z,37.58
2019-06-20T19:23:33.757Z,34.78
2019-06-20T19:25:59.914Z,31.17
2019-06-20T19:28:26.094Z,30.95
2019-06-20T19:30:52.846Z,31.55
2019-06-20T19:33:19.042Z,30.92
2019-06-20T19:35:45.398Z,31.55
2019-06-20T19:38:11.726Z,32.75
2019-06-20T19:40:46.601Z,32.08
2019-06-20T19:43:12.745Z,31.85
2019-06-20T19:45:39.913Z,32.60
2019-06-20T19:48:06.048Z,34.45
2019-06-20T19:50:32.207Z,35.00
2019-06-20T19:52:58.507Z,37.55
2019-06-20T19:55:24.831Z,37.40
2019-06-20T19:57:50.980Z,39.53
2019-06-20T20:00:18.144Z,40.55
2019-06-20T20:02:44.295Z,42.80
2019-06-20T20:05:18.915Z,44.50
2019-06-20T20:07:38.715Z,45.30
2019-06-20T20:10:07.366Z,46.50
2019-06-20T20:12:33.618Z,47.25
2019-06-20T20:15:00.757Z,46.58
2019-06-20T20:17:26.901Z,47.00
2019-06-20T20:19:53.052Z,45.58
2019-06-20T20:22:19.188Z,47.08
2019-06-20T20:24:45.353Z,45.88
2019-06-20T20:27:11.496Z,49.18
2019-06-20T20:29:37.663Z,48.52
2019-06-20T20:32:04.615Z,49.73
2019-06-20T20:34:30.767Z,47.80
2019-06-20T20:36:56.917Z,47.23
2019-06-20T20:39:23.085Z,43.78
2019-06-20T20:41:49.242Z,41.05
2019-06-20T20:44:15.500Z,40.52
2019-06-20T20:46:41.636Z,42.10
2019-06-20T20:49:07.776Z,40.73
2019-06-20T20:51:33.991Z,37.90
2019-06-20T20:54:00.381Z,37.40
2019-06-20T20:56:26.540Z,36.93
2019-06-20T20:58:52.688Z,37.40
2019-06-20T21:01:29.229Z,42.80
2019-06-20T21:03:55.394Z,42.43
2019-06-20T21:06:21.577Z,40.10
2019-06-20T21:08:47.718Z,39.55
2019-06-20T21:11:14.180Z,39.38
2019-06-20T21:13:40.319Z,40.35
2019-06-20T21:16:06.573Z,39.95
2019-06-20T21:18:32.720Z,37.38
2019-06-20T21:20:58.882Z,40.73
2019-06-20T21:23:25.029Z,42.98
2019-06-20T21:25:51.195Z,38.67
2019-06-20T21:28:17.349Z,38.33
2019-06-20T21:30:43.510Z,39.42
2019-06-20T21:33:09.768Z,39.45
2019-06-20T21:35:35.945Z,41.28
2019-06-20T21:38:02.098Z,43.23
2019-06-20T21:40:28.261Z,43.48
2019-06-20T21:42:54.405Z,42.98
2019-06-20T21:45:20.658Z,45.05
2019-06-20T21:47:46.797Z,45.73
2019-06-20T21:50:13.353Z,47.38
2019-06-20T21:52:39.605Z,46.60
2019-06-20T21:55:06.411Z,48.20
2019-06-20T21:57:32.548Z,46.48
2019-06-20T21:59:58.688Z,47.78
2019-06-20T22:02:24.858Z,48.50
2019-06-20T22:04:54.558Z,47.10
2019-06-20T22:07:19.076Z,48.65
2019-06-20T22:09:45.228Z,50.88
2019-06-20T22:12:11.390Z,51.45
2019-06-20T22:14:37.806Z,52.40
2019-06-20T22:17:03.956Z,51.18
2019-06-20T22:19:30.096Z,51.55
2019-06-20T22:21:56.262Z,50.88
2019-06-20T22:24:22.399Z,50.90
2019-06-20T22:26:48.552Z,51.63
2019-06-20T22:29:14.705Z,51.37
2019-06-20T22:31:41.175Z,54.67
2019-06-20T22:34:07.404Z,52.88
2019-06-20T22:36:40.290Z,52.85
2019-06-20T22:39:01.665Z,52.25
2019-06-20T22:41:29.710Z,50.73
2019-06-20T22:43:55.856Z,51.40
2019-06-20T22:46:22.038Z,51.83
2019-06-20T22:48:48.190Z,45.35
2019-06-20T22:51:14.351Z,48.20
2019-06-20T22:53:40.489Z,45.20
2019-06-20T22:56:06.652Z,47.27
2019-06-20T22:58:32.777Z,43.60
2019-06-20T23:00:58.929Z,45.10
2019-06-20T23:03:25.076Z,42.93
2019-06-20T23:05:51.243Z,44.27
2019-06-20T23:08:17.506Z,40.78
2019-06-20T23:10:43.661Z,40.75
2019-06-20T23:13:09.813Z,40.48
2019-06-20T23:15:36.958Z,38.00
2019-06-20T23:18:03.311Z,37.55
2019-06-20T23:20:29.452Z,37.48
2019-06-20T23:22:55.603Z,39.70
2019-06-20T23:25:21.764Z,38.95
2019-06-20T23:27:47.927Z,39.48
2019-06-20T23:30:14.561Z,40.25
2019-06-20T23:32:40.722Z,41.80
2019-06-20T23:35:07.379Z,38.55
2019-06-20T23:37:33.544Z,39.92
2019-06-20T23:39:59.781Z,39.53
2019-06-20T23:42:25.928Z,39.55
2019-06-20T23:44:52.320Z,39.18
2019-06-20T23:47:18.473Z,39.83
2019-06-20T23:49:44.631Z,39.50
2019-06-20T23:52:12.685Z,40.28
2019-06-20T23:54:38.825Z,39.45
2019-06-20T23:57:04.978Z,37.23
2019-06-20T23:59:31.122Z,40.52
